createdAt,value
2018-09-02T00:02:25.933Z,4.1
2018-09-02T00:07:28.151Z,2.7
2018-09-02T00:12:30.517Z,3.2
2018-09-02T00:17:32.823Z,2.8
2018-09-02T00:22:35.055Z,4.7
2018-09-02T00:27:37.252Z,3.9
2018-09-02T00:32:39.570Z,3
2018-09-02T00:37:41.863Z,2.4
2018-09-02T00:42:44.118Z,5.3
2018-09-02T00:47:46.540Z,4.6
2018-09-02T00:52:48.751Z,5.5
2018-09-02T01:02:53.338Z,3.9
2018-09-02T01:07:55.802Z,5.2
2018-09-02T01:12:58.019Z,5.2
2018-09-02T01:18:00.238Z,4.5
2018-09-02T01:23:02.736Z,6.3
2018-09-02T01:28:04.770Z,6.4
2018-09-02T01:33:07.367Z,6.7
2018-09-02T01:38:09.504Z,5.6
2018-09-02T01:43:11.743Z,6.3
2018-09-02T01:48:14.015Z,4.1
2018-09-02T01:53:16.370Z,4.2
2018-09-02T01:58:18.626Z,5.8
2018-09-02T02:03:20.859Z,4.7
2018-09-02T02:08:23.170Z,6.4
2018-09-02T02:13:25.462Z,5.9
2018-09-02T02:18:27.844Z,8.1
2018-09-02T02:23:30.172Z,6.4
2018-09-02T02:28:32.345Z,5.7
2018-09-02T02:33:34.611Z,7.5
2018-09-02T02:38:36.971Z,5.2
2018-09-02T02:43:39.286Z,5.7
2018-09-02T02:48:41.837Z,3.9
2018-09-02T02:53:43.842Z,5.8
2018-09-02T02:58:46.197Z,8.1
2018-09-02T03:03:48.504Z,5.2
2018-09-02T03:08:50.789Z,4.1
2018-09-02T03:13:53.028Z,6.5
2018-09-02T03:18:55.295Z,7
2018-09-02T03:23:57.592Z,7
2018-09-02T03:29:00.065Z,4
2018-09-02T03:34:02.276Z,4.9
2018-09-02T03:39:04.452Z,7.9
2018-09-02T03:44:06.813Z,8.1
2018-09-02T03:49:09.146Z,6.4
2018-09-02T03:54:11.427Z,8.2
2018-09-02T03:59:13.689Z,6.8
2018-09-02T04:04:15.951Z,4.5
2018-09-02T04:09:18.157Z,7.9
2018-09-02T04:14:20.570Z,8.8
2018-09-02T04:19:22.822Z,5
2018-09-02T04:24:25.096Z,5.4
2018-09-02T04:29:27.520Z,7.2
2018-09-02T04:34:29.785Z,7.5
2018-09-02T04:39:31.965Z,6.7
2018-09-02T04:44:34.300Z,6.6
2018-09-02T04:49:36.779Z,8
2018-09-02T04:54:38.946Z,7.1
2018-09-02T04:59:41.256Z,9.9
2018-09-02T05:04:43.492Z,8.2
2018-09-02T05:09:45.822Z,7.7
2018-09-02T05:14:48.093Z,7.7
2018-09-02T05:19:50.437Z,9
2018-09-02T05:24:52.794Z,7.8
2018-09-02T05:29:54.969Z,6.4
2018-09-02T05:34:57.202Z,8
2018-09-02T05:39:59.542Z,9
2018-09-02T05:45:01.903Z,8.2
2018-09-02T05:50:04.166Z,7.5
2018-09-02T05:55:06.558Z,9.7
2018-09-02T06:00:08.827Z,9.1
2018-09-02T06:05:11.072Z,10.2
2018-09-02T06:10:13.406Z,7.5
2018-09-02T06:15:15.552Z,8.5
2018-09-02T06:20:17.813Z,7.8
2018-09-02T06:25:20.154Z,8.7
2018-09-02T06:30:22.510Z,9.2
2018-09-02T06:35:24.745Z,7.7
2018-09-02T06:40:27.372Z,9.3
2018-09-02T06:45:29.362Z,8.4
2018-09-02T06:50:31.614Z,10
2018-09-02T06:55:33.949Z,7.3
2018-09-02T07:00:36.293Z,7.5
2018-09-02T07:05:38.575Z,4.4
2018-09-02T07:10:40.767Z,9.5
2018-09-02T07:15:43.127Z,5.5
2018-09-02T07:20:45.476Z,6.3
2018-09-02T07:25:47.730Z,6
2018-09-02T07:30:49.933Z,6.1
2018-09-02T07:35:52.348Z,7.8
2018-09-02T07:40:54.645Z,5.8
2018-09-02T07:45:57.088Z,7.2
2018-09-02T07:50:59.239Z,6.5
2018-09-02T07:56:01.557Z,6.5
2018-09-02T08:01:03.688Z,5.8
2018-09-02T08:06:06.113Z,4.7
2018-09-02T08:12:10.031Z,7.1
2018-09-02T08:16:10.660Z,10.8
2018-09-02T08:21:12.887Z,7
2018-09-02T08:26:15.351Z,4.7
2018-09-02T08:31:17.591Z,7.1
2018-09-02T08:36:19.853Z,4.5
2018-09-02T08:41:22.075Z,5.8
2018-09-02T08:46:24.347Z,7
2018-09-02T08:51:26.703Z,4.6
2018-09-02T08:56:29.051Z,7.6
2018-09-02T09:01:31.386Z,6.2
2018-09-02T09:06:33.608Z,7
2018-09-02T09:11:35.993Z,3.3
2018-09-02T09:16:38.365Z,5.9
2018-09-02T09:21:40.565Z,5.3
2018-09-02T09:26:42.800Z,5.6
2018-09-02T09:31:45.180Z,4.8
2018-09-02T09:36:47.375Z,3.9
2018-09-02T09:41:49.734Z,4.7
2018-09-02T09:46:51.943Z,4.9
2018-09-02T09:51:54.251Z,5.3
2018-09-02T09:56:56.809Z,7.6
2018-09-02T10:01:58.857Z,6.4
2018-09-02T10:07:01.128Z,5.7
2018-09-02T10:12:03.480Z,3.4
2018-09-02T10:17:05.823Z,4.1
2018-09-02T10:22:08.061Z,4.9
2018-09-02T10:27:10.312Z,5.2
2018-09-02T10:32:12.566Z,4.5
2018-09-02T10:37:15.080Z,4
2018-09-02T10:42:17.234Z,4.3
2018-09-02T10:47:19.478Z,5
2018-09-02T10:52:21.775Z,2.7
2018-09-02T10:57:24.280Z,4.5
2018-09-02T11:02:26.364Z,5.2
2018-09-02T11:07:28.639Z,4.3
2018-09-02T11:12:31.050Z,2.7
2018-09-02T11:17:33.167Z,3.8
2018-09-02T11:22:35.664Z,3.6
2018-09-02T11:27:37.834Z,2.6
2018-09-02T11:32:40.071Z,4.3
2018-09-02T11:37:42.482Z,1.7
2018-09-02T11:42:44.774Z,2.8
2018-09-02T11:47:47.139Z,1.4
2018-09-02T11:52:49.306Z,1.9
2018-09-02T11:57:51.740Z,1.1
2018-09-02T12:02:53.862Z,2.4
2018-09-02T12:07:56.283Z,2.4
2018-09-02T12:12:58.566Z,2.1
2018-09-02T12:18:00.772Z,1.3
2018-09-02T12:23:03.059Z,3.7
2018-09-02T12:28:05.467Z,3.2
2018-09-02T12:33:07.641Z,2.6
2018-09-02T12:38:10.067Z,1.8
2018-09-02T12:43:12.267Z,2.6
2018-09-02T12:48:14.570Z,1.8
2018-09-02T12:53:16.891Z,2.8
2018-09-02T12:58:19.295Z,1.6
2018-09-02T13:03:21.551Z,2
2018-09-02T13:08:23.736Z,2.1
2018-09-02T13:13:26.088Z,2.2
2018-09-02T13:18:28.378Z,1.6
2018-09-02T13:23:30.763Z,1.8
2018-09-02T13:28:32.845Z,2.1
2018-09-02T13:33:35.231Z,2.2
2018-09-02T13:38:37.584Z,2.9
2018-09-02T13:43:39.798Z,1.4
2018-09-02T13:48:42.061Z,1.7
2018-09-02T13:53:44.349Z,1.6
2018-09-02T13:58:46.634Z,3.2
2018-09-02T14:03:48.982Z,1.6
2018-09-02T14:08:51.312Z,2.4
2018-09-02T14:13:53.580Z,3.1
2018-09-02T14:18:55.849Z,2.4
2018-09-02T14:23:58.082Z,1.8
2018-09-02T14:29:00.456Z,1.6
2018-09-02T14:34:02.911Z,0.8
2018-09-02T14:39:05.142Z,1.2
2018-09-02T14:44:07.285Z,2.3
2018-09-02T14:49:09.585Z,1
2018-09-02T14:54:11.986Z,1.5
2018-09-02T14:59:14.253Z,1.5
2018-09-02T15:04:16.498Z,1
2018-09-02T15:09:18.808Z,2
2018-09-02T15:14:21.221Z,2.6
2018-09-02T15:19:23.482Z,1.7
2018-09-02T15:24:25.643Z,3.4
2018-09-02T15:29:28.096Z,2.2
2018-09-02T15:34:30.356Z,2.3
2018-09-02T15:39:32.525Z,1.7
2018-09-02T15:44:34.807Z,1.8
2018-09-02T15:49:37.275Z,1.3
2018-09-02T15:54:39.501Z,4.5
2018-09-02T15:59:41.757Z,2.5
2018-09-02T16:04:44.097Z,1.4
2018-09-02T16:09:46.275Z,2
2018-09-02T16:14:48.774Z,0.8
2018-09-02T16:19:50.991Z,1.7
2018-09-02T16:24:53.271Z,2.3
2018-09-02T16:29:55.704Z,1.2
2018-09-02T16:34:57.832Z,0.6
2018-09-02T16:40:00.241Z,3.2
2018-09-02T16:45:02.450Z,2.7
2018-09-02T16:50:04.779Z,2.4
2018-09-02T16:55:06.923Z,2.6
2018-09-02T17:00:09.280Z,1.6
2018-09-02T17:05:11.586Z,1.2
2018-09-02T17:10:13.846Z,1.4
2018-09-02T17:20:18.574Z,2
2018-09-02T17:25:21.048Z,2.3
2018-09-02T17:30:23.086Z,1.5
2018-09-02T17:35:25.308Z,1.3
2018-09-02T17:40:27.648Z,1.7
2018-09-02T17:45:29.889Z,1.4
2018-09-02T17:50:32.359Z,2
2018-09-02T17:55:34.505Z,1.5
2018-09-02T18:00:36.855Z,1.6
2018-09-02T18:05:39.222Z,2.9
2018-09-02T18:10:41.436Z,1.2
2018-09-02T18:15:43.717Z,2.5
2018-09-02T18:20:45.959Z,1.3
2018-09-02T18:25:48.394Z,1.7
2018-09-02T18:30:50.527Z,0.9
2018-09-02T18:35:52.889Z,1
2018-09-02T18:40:55.267Z,1.6
2018-09-02T18:45:57.442Z,1.8
2018-09-02T18:50:59.732Z,1
2018-09-02T18:56:02.231Z,1.8
2018-09-02T19:01:04.480Z,2.1
2018-09-02T19:06:06.668Z,2.4
2018-09-02T19:11:08.898Z,2.3
2018-09-02T19:16:11.311Z,1.7
2018-09-02T19:21:13.588Z,2.3
2018-09-02T19:26:15.875Z,1.6
2018-09-02T19:31:18.122Z,1.3
2018-09-02T19:36:20.574Z,1.5
2018-09-02T19:41:22.727Z,1.7
2018-09-02T19:46:25.020Z,2.1
2018-09-02T19:51:27.337Z,1
2018-09-02T19:56:29.640Z,3.5
2018-09-02T20:01:32.117Z,2.1
2018-09-02T20:06:34.190Z,1.7
2018-09-02T20:11:36.472Z,2.8
2018-09-02T20:16:38.681Z,1.5
2018-09-02T20:21:41.055Z,2.6
2018-09-02T20:26:43.446Z,2.3
2018-09-02T20:31:45.597Z,1.4
2018-09-02T20:36:48.059Z,2.7
2018-09-02T20:41:50.162Z,1.6
2018-09-02T20:46:52.610Z,2.2
2018-09-02T20:51:54.758Z,1.6
2018-09-02T20:56:57.181Z,2.4
2018-09-02T21:01:59.341Z,3.5
2018-09-02T21:07:01.706Z,3.6
2018-09-02T21:12:03.923Z,2.1
2018-09-02T21:17:06.539Z,2
2018-09-02T21:22:08.665Z,2.7
2018-09-02T21:27:10.890Z,3.2
2018-09-02T21:32:13.158Z,2.4
2018-09-02T21:37:15.584Z,3.4
2018-09-02T21:42:17.809Z,2.1
2018-09-02T21:47:20.178Z,2.1
2018-09-02T21:52:22.415Z,3.3
2018-09-02T21:57:24.631Z,1.7
2018-09-02T22:02:26.889Z,1.2
2018-09-02T22:07:29.315Z,2.3
2018-09-02T22:12:31.661Z,1.8
2018-09-02T22:17:33.897Z,3.5
2018-09-02T22:22:36.187Z,2.3
2018-09-02T22:27:38.391Z,2.6
2018-09-02T22:32:40.624Z,3.7
2018-09-02T22:37:43.095Z,2.1
2018-09-02T22:42:45.319Z,2.1
2018-09-02T22:47:47.523Z,4
2018-09-02T22:52:49.900Z,3.6
2018-09-02T22:57:52.160Z,3.5
2018-09-02T23:02:54.470Z,3.3
2018-09-02T23:07:56.811Z,2.1
2018-09-02T23:12:59.152Z,2.8
2018-09-02T23:18:01.268Z,3
2018-09-02T23:23:03.549Z,4.2
2018-09-02T23:28:05.999Z,2.2
2018-09-02T23:33:08.281Z,2.9
2018-09-02T23:38:10.476Z,2.8
2018-09-02T23:43:12.835Z,3
2018-09-02T23:48:15.140Z,3.4
2018-09-02T23:53:17.439Z,4.6
2018-09-02T23:58:19.781Z,2.6
